createdAt,value
2022-09-16T00:01:44.960Z,96.44
2022-09-16T00:04:14.070Z,96.48
2022-09-16T00:06:42.885Z,96.58
2022-09-16T00:09:12.798Z,96.72
2022-09-16T00:11:41.996Z,96.94
2022-09-16T00:14:10.737Z,97.23
2022-09-16T00:16:39.942Z,97.46
2022-09-16T00:19:09.777Z,97.54
2022-09-16T00:21:39.015Z,97.69
2022-09-16T00:24:08.065Z,97.89
2022-09-16T00:26:39.660Z,97.96
2022-09-16T00:29:08.690Z,98.07
2022-09-16T00:31:38.000Z,98.19
2022-09-16T00:34:07.245Z,98.30
2022-09-16T00:36:36.378Z,98.38
2022-09-16T00:39:05.451Z,98.41
2022-09-16T00:41:37.744Z,98.47
2022-09-16T00:44:27.186Z,98.62
2022-09-16T00:46:56.170Z,98.61
2022-09-16T00:49:29.497Z,98.58
2022-09-16T00:52:02.516Z,98.55
2022-09-16T00:54:31.617Z,98.48
2022-09-16T00:57:00.625Z,98.38
2022-09-16T00:59:33.132Z,98.37
2022-09-16T01:02:07.983Z,98.46
2022-09-16T01:05:00.273Z,98.31
2022-09-16T01:07:46.474Z,98.26
2022-09-16T01:10:18.744Z,98.38
2022-09-16T01:12:59.936Z,98.41
2022-09-16T01:16:02.281Z,98.49
2022-09-16T01:18:49.382Z,98.52
2022-09-16T01:21:26.628Z,98.63
2022-09-16T01:24:16.970Z,98.63
2022-09-16T01:27:24.050Z,98.78
2022-09-16T01:30:36.596Z,99.06
2022-09-16T01:33:25.155Z,99.15
2022-09-16T01:36:15.389Z,99.07
2022-09-16T01:39:09.969Z,99.07
2022-09-16T01:41:53.716Z,99.17
2022-09-16T01:44:31.536Z,99.31
2022-09-16T01:47:23.122Z,99.57
2022-09-16T01:50:00.677Z,99.68
2022-09-16T01:52:47.323Z,99.82
2022-09-16T01:55:28.278Z,99.89
2022-09-16T01:58:35.735Z,99.91
2022-09-16T02:01:10.019Z,99.96
2022-09-16T02:03:40.705Z,99.99
2022-09-16T02:06:11.703Z,100.00
2022-09-16T02:09:04.644Z,100.00
2022-09-16T02:11:35.747Z,100.00
2022-09-16T02:14:15.869Z,100.00
2022-09-16T02:17:13.427Z,100.00
2022-09-16T02:19:59.055Z,100.00
2022-09-16T02:22:33.670Z,99.88
2022-09-16T02:25:04.074Z,99.72
2022-09-16T02:27:34.273Z,99.70
2022-09-16T02:30:11.006Z,99.63
2022-09-16T02:32:46.253Z,99.60
2022-09-16T02:35:18.086Z,99.52
2022-09-16T02:37:58.014Z,99.43
2022-09-16T02:40:47.862Z,99.26
2022-09-16T02:43:18.683Z,99.12
2022-09-16T02:46:00.051Z,98.97
2022-09-16T02:48:46.594Z,98.93
2022-09-16T02:51:56.597Z,98.75
2022-09-16T02:54:53.336Z,98.63
2022-09-16T02:57:23.837Z,98.63
2022-09-16T02:59:52.843Z,98.48
2022-09-16T03:02:22.996Z,98.48
2022-09-16T03:04:52.236Z,98.31
2022-09-16T03:07:21.473Z,98.14
2022-09-16T03:09:50.671Z,97.98
2022-09-16T03:12:45.026Z,97.80
2022-09-16T03:15:49.379Z,97.73
2022-09-16T03:18:25.692Z,97.54
2022-09-16T03:21:24.606Z,97.45
2022-09-16T03:24:15.131Z,97.36
2022-09-16T03:27:01.447Z,97.22
2022-09-16T03:29:45.729Z,97.14
2022-09-16T03:32:21.322Z,97.08
2022-09-16T03:34:58.392Z,96.92
2022-09-16T03:37:31.527Z,96.87
2022-09-16T03:40:00.551Z,96.90
2022-09-16T03:42:30.395Z,97.02
2022-09-16T03:45:00.537Z,97.20
2022-09-16T03:47:30.226Z,97.54
2022-09-16T03:50:00.198Z,97.79
2022-09-16T03:52:30.218Z,97.78
2022-09-16T03:54:59.769Z,97.88
2022-09-16T03:57:30.497Z,98.06
2022-09-16T04:00:00.820Z,97.99
2022-09-16T04:02:30.981Z,98.19
2022-09-16T04:04:59.916Z,98.41
2022-09-16T04:07:29.098Z,98.62
2022-09-16T04:09:57.937Z,98.75
2022-09-16T04:12:27.816Z,98.87
2022-09-16T04:14:58.341Z,98.90
2022-09-16T04:17:32.508Z,99.03
2022-09-16T04:20:02.831Z,99.02
2022-09-16T04:22:31.644Z,99.05
2022-09-16T04:25:01.070Z,99.11
2022-09-16T04:27:31.347Z,99.15
2022-09-16T04:30:00.089Z,99.14
2022-09-16T04:32:28.997Z,99.21
2022-09-16T04:34:58.459Z,99.35
2022-09-16T04:37:29.147Z,99.32
2022-09-16T04:40:02.352Z,99.38
2022-09-16T04:42:30.461Z,99.46
2022-09-16T04:45:00.281Z,99.39
2022-09-16T04:47:29.699Z,99.34
2022-09-16T04:49:58.646Z,99.32
2022-09-16T04:52:30.762Z,99.37
2022-09-16T04:54:59.670Z,99.36
2022-09-16T04:57:33.005Z,99.18
2022-09-16T05:00:03.549Z,99.12
2022-09-16T05:02:34.671Z,99.08
2022-09-16T05:05:04.789Z,99.16
2022-09-16T05:07:34.914Z,99.09
2022-09-16T05:10:04.898Z,99.20
2022-09-16T05:12:37.441Z,99.24
2022-09-16T05:15:09.365Z,99.26
2022-09-16T05:17:50.992Z,99.17
2022-09-16T05:20:13.943Z,99.23
2022-09-16T05:22:42.713Z,99.27
2022-09-16T05:25:11.734Z,99.30
2022-09-16T05:27:40.938Z,99.26
2022-09-16T05:30:14.126Z,99.41
2022-09-16T05:32:44.269Z,99.32
2022-09-16T05:35:13.427Z,99.14
2022-09-16T05:37:42.344Z,98.98
2022-09-16T05:40:11.523Z,98.99
2022-09-16T05:42:41.031Z,98.75
2022-09-16T05:45:10.851Z,98.52
2022-09-16T05:47:39.907Z,98.37
2022-09-16T05:50:09.279Z,98.16
2022-09-16T05:52:39.393Z,97.88
2022-09-16T05:55:09.132Z,97.66
2022-09-16T05:57:40.830Z,97.76
2022-09-16T06:00:12.374Z,97.79
2022-09-16T06:02:43.706Z,97.73
2022-09-16T06:05:14.093Z,97.81
2022-09-16T06:07:44.679Z,97.62
2022-09-16T06:10:14.427Z,97.37
2022-09-16T06:12:43.337Z,97.22
2022-09-16T06:15:13.655Z,97.08
2022-09-16T06:17:43.250Z,96.88
2022-09-16T06:20:14.554Z,96.93
2022-09-16T06:22:43.354Z,96.90
2022-09-16T06:25:14.293Z,96.68
2022-09-16T06:27:46.041Z,96.65
2022-09-16T06:30:15.074Z,96.34
2022-09-16T06:32:45.166Z,96.15
2022-09-16T06:35:14.193Z,95.82
2022-09-16T06:37:43.634Z,95.34
2022-09-16T06:40:13.615Z,95.28
2022-09-16T06:42:42.943Z,95.34
2022-09-16T06:45:13.493Z,95.32
2022-09-16T06:47:44.013Z,95.28
2022-09-16T06:50:13.076Z,95.03
2022-09-16T06:52:42.175Z,94.50
2022-09-16T06:55:10.935Z,93.95
2022-09-16T06:57:39.913Z,93.65
2022-09-16T07:00:12.697Z,93.68
2022-09-16T07:02:41.708Z,93.23
2022-09-16T07:05:13.492Z,92.01
2022-09-16T07:07:44.171Z,90.76
2022-09-16T07:10:13.330Z,90.63
2022-09-16T07:12:42.728Z,90.62
2022-09-16T07:15:11.974Z,90.42
2022-09-16T07:17:41.055Z,90.42
2022-09-16T07:20:11.041Z,90.48
2022-09-16T07:22:40.803Z,90.41
2022-09-16T07:25:11.880Z,90.45
2022-09-16T07:27:43.828Z,90.42
2022-09-16T07:30:13.603Z,90.05
2022-09-16T07:32:42.648Z,89.62
2022-09-16T07:35:11.768Z,89.16
2022-09-16T07:37:42.862Z,88.92
2022-09-16T07:40:13.435Z,88.64
2022-09-16T07:42:43.604Z,88.64
2022-09-16T07:45:13.294Z,88.71
2022-09-16T07:47:44.004Z,88.72
2022-09-16T07:50:12.915Z,88.28
2022-09-16T07:52:42.320Z,87.20
2022-09-16T07:55:12.596Z,86.41
2022-09-16T07:57:41.510Z,85.28
2022-09-16T08:00:12.320Z,84.73
2022-09-16T08:02:42.213Z,84.19
2022-09-16T08:05:11.555Z,83.72
2022-09-16T08:07:42.085Z,83.23
2022-09-16T08:10:11.124Z,82.07
2022-09-16T08:12:39.769Z,81.55
2022-09-16T08:15:11.623Z,80.31
2022-09-16T08:17:41.935Z,79.43
2022-09-16T08:20:10.762Z,79.42
2022-09-16T08:22:39.469Z,79.42
2022-09-16T08:25:09.575Z,78.57
2022-09-16T08:27:38.319Z,77.42
2022-09-16T08:30:10.185Z,75.60
2022-09-16T08:32:40.551Z,74.46
2022-09-16T08:35:11.045Z,72.37
2022-09-16T08:37:40.994Z,69.95
2022-09-16T08:40:17.523Z,68.86
2022-09-16T08:43:01.803Z,66.54
2022-09-16T08:45:38.874Z,66.50
2022-09-16T08:48:36.003Z,66.43
2022-09-16T08:51:06.120Z,66.84
2022-09-16T08:53:56.068Z,66.35
2022-09-16T08:56:27.294Z,66.17
2022-09-16T08:59:01.329Z,65.89
2022-09-16T09:01:54.850Z,65.42
2022-09-16T09:04:24.291Z,66.12
2022-09-16T09:07:26.787Z,66.47
2022-09-16T09:10:01.178Z,67.21
2022-09-16T09:12:42.164Z,67.70
2022-09-16T09:15:38.184Z,67.01
2022-09-16T09:18:30.745Z,66.77
2022-09-16T09:21:27.375Z,65.82
2022-09-16T09:24:23.419Z,64.76
2022-09-16T09:27:13.366Z,64.13
2022-09-16T09:30:21.857Z,62.69
2022-09-16T09:33:45.058Z,62.58
2022-09-16T09:36:16.842Z,62.58
2022-09-16T09:38:54.138Z,62.07
2022-09-16T09:41:57.136Z,62.49
2022-09-16T09:44:46.653Z,62.37
2022-09-16T09:47:23.762Z,62.36
2022-09-16T09:49:58.394Z,62.23
2022-09-16T09:52:50.506Z,62.35
2022-09-16T09:55:22.194Z,62.58
2022-09-16T09:58:19.264Z,61.81
2022-09-16T10:00:52.958Z,61.64
2022-09-16T10:03:22.752Z,60.44
2022-09-16T10:05:51.744Z,60.76
2022-09-16T10:08:47.435Z,60.23
2022-09-16T10:11:25.744Z,59.85
2022-09-16T10:14:00.892Z,59.59
2022-09-16T10:16:40.144Z,57.88
2022-09-16T10:19:24.523Z,57.79
2022-09-16T10:21:57.523Z,58.21
2022-09-16T10:24:33.658Z,58.50
2022-09-16T10:27:06.178Z,58.60
2022-09-16T10:29:36.359Z,58.65
2022-09-16T10:32:07.146Z,58.71
2022-09-16T10:34:40.703Z,58.74
2022-09-16T10:37:18.472Z,58.36
2022-09-16T10:39:57.792Z,59.05
2022-09-16T10:42:28.408Z,59.54
2022-09-16T10:45:05.303Z,59.59
2022-09-16T10:47:35.975Z,59.97
2022-09-16T10:50:06.412Z,60.39
2022-09-16T10:52:47.554Z,60.19
2022-09-16T10:55:29.539Z,60.29
2022-09-16T10:58:19.304Z,60.65
2022-09-16T11:01:09.240Z,61.03
2022-09-16T11:04:05.381Z,60.98
2022-09-16T11:07:01.231Z,60.89
2022-09-16T11:09:47.645Z,60.95
2022-09-16T11:12:55.162Z,59.32
2022-09-16T11:15:53.545Z,59.19
2022-09-16T11:18:40.848Z,59.13
2022-09-16T11:21:32.745Z,59.23
2022-09-16T11:24:41.313Z,59.56
2022-09-16T11:27:51.344Z,59.43
2022-09-16T11:30:22.392Z,59.30
2022-09-16T11:33:28.552Z,59.66
2022-09-16T11:36:12.432Z,59.08
2022-09-16T11:38:49.528Z,59.22
2022-09-16T11:41:36.811Z,58.83
2022-09-16T11:44:28.941Z,58.22
2022-09-16T11:47:21.963Z,58.10
2022-09-16T11:50:08.638Z,58.15
2022-09-16T11:53:16.901Z,57.98
2022-09-16T11:56:24.167Z,58.13
2022-09-16T11:59:00.838Z,58.26
2022-09-16T12:01:33.505Z,58.39
2022-09-16T12:04:23.363Z,56.75
2022-09-16T12:07:12.687Z,56.55
2022-09-16T12:10:09.672Z,56.01
2022-09-16T12:12:44.283Z,55.97
2022-09-16T12:15:26.249Z,55.54
2022-09-16T12:18:01.626Z,56.28
2022-09-16T12:20:35.533Z,56.58
2022-09-16T12:23:16.730Z,56.25
2022-09-16T12:26:09.852Z,56.40
2022-09-16T12:29:06.437Z,56.08
2022-09-16T12:31:56.760Z,55.35
2022-09-16T12:34:31.418Z,54.05
2022-09-16T12:37:31.362Z,54.46
2022-09-16T12:40:02.193Z,53.81
2022-09-16T12:43:07.547Z,54.66
2022-09-16T12:46:33.758Z,54.71
2022-09-16T12:49:27.647Z,54.84
2022-09-16T12:52:11.197Z,54.92
2022-09-16T12:55:12.543Z,55.51
2022-09-16T12:57:52.872Z,55.34
2022-09-16T13:00:51.479Z,55.22
2022-09-16T13:03:23.176Z,54.48
2022-09-16T13:05:52.689Z,54.58
2022-09-16T13:08:32.617Z,54.21
2022-09-16T13:12:00.471Z,54.14
2022-09-16T13:13:48.012Z,53.90
2022-09-16T13:16:32.228Z,54.17
2022-09-16T13:19:41.544Z,54.57
2022-09-16T13:22:31.319Z,55.05
2022-09-16T13:25:16.756Z,55.52
2022-09-16T13:28:07.513Z,55.48
2022-09-16T13:30:37.497Z,54.93
2022-09-16T13:33:17.444Z,54.54
2022-09-16T13:35:49.342Z,53.45
2022-09-16T13:38:26.110Z,53.38
2022-09-16T13:40:57.713Z,53.42
2022-09-16T13:43:43.578Z,53.58
2022-09-16T13:46:18.040Z,53.68
2022-09-16T13:49:09.383Z,54.33
2022-09-16T13:51:44.803Z,54.58
2022-09-16T13:54:30.393Z,55.01
2022-09-16T13:57:12.498Z,55.23
2022-09-16T14:00:10.486Z,54.92
2022-09-16T14:03:31.050Z,55.08
2022-09-16T14:06:08.231Z,55.18
2022-09-16T14:09:02.202Z,55.01
2022-09-16T14:11:43.100Z,55.13
2022-09-16T14:14:36.139Z,55.46
2022-09-16T14:16:47.481Z,55.21
2022-09-16T14:19:25.465Z,54.63
2022-09-16T14:22:16.811Z,54.64
2022-09-16T14:24:46.358Z,54.99
2022-09-16T14:27:28.510Z,55.31
2022-09-16T14:30:01.814Z,55.51
2022-09-16T14:32:36.653Z,55.27
2022-09-16T14:35:12.181Z,55.15
2022-09-16T14:37:43.462Z,54.28
2022-09-16T14:40:16.303Z,53.85
2022-09-16T14:42:58.395Z,53.70
2022-09-16T14:45:27.371Z,53.21
2022-09-16T14:47:56.142Z,53.71
2022-09-16T14:50:35.294Z,53.55
2022-09-16T14:53:08.774Z,53.66
2022-09-16T14:55:39.886Z,53.07
2022-09-16T14:58:10.028Z,53.43
2022-09-16T15:00:44.634Z,53.93
2022-09-16T15:03:18.549Z,53.96
2022-09-16T15:05:47.906Z,54.20
2022-09-16T15:08:31.067Z,54.04
2022-09-16T15:11:08.164Z,54.01
2022-09-16T15:13:39.311Z,54.59
2022-09-16T15:16:12.176Z,54.69
2022-09-16T15:18:44.502Z,54.59
2022-09-16T15:21:20.662Z,54.88
2022-09-16T15:23:51.964Z,56.00
2022-09-16T15:26:45.650Z,55.78
2022-09-16T15:29:27.988Z,55.74
2022-09-16T15:32:17.760Z,54.93
2022-09-16T15:34:46.486Z,54.61
2022-09-16T15:37:33.568Z,55.06
2022-09-16T15:40:31.109Z,54.49
2022-09-16T15:43:06.536Z,54.36
2022-09-16T15:45:36.243Z,54.62
2022-09-16T15:48:18.500Z,54.21
2022-09-16T15:50:55.660Z,54.39
2022-09-16T15:53:35.846Z,53.99
2022-09-16T15:56:25.189Z,53.76
2022-09-16T15:59:02.199Z,53.67
2022-09-16T16:01:38.396Z,53.37
2022-09-16T16:04:10.447Z,53.87
2022-09-16T16:06:47.804Z,53.30
2022-09-16T16:09:40.201Z,52.30
2022-09-16T16:12:16.418Z,52.36
2022-09-16T16:14:47.017Z,52.42
2022-09-16T16:17:19.745Z,52.62
2022-09-16T16:19:50.073Z,52.71
2022-09-16T16:22:20.614Z,52.68
2022-09-16T16:24:50.229Z,52.58
2022-09-16T16:27:19.326Z,52.69
2022-09-16T16:29:49.258Z,52.65
2022-09-16T16:32:18.798Z,52.58
2022-09-16T16:34:52.003Z,53.05
2022-09-16T16:37:44.852Z,53.13
2022-09-16T16:39:52.890Z,53.52
2022-09-16T16:42:23.017Z,53.82
2022-09-16T16:44:52.521Z,53.80
2022-09-16T16:47:22.642Z,54.01
2022-09-16T16:49:52.866Z,54.28
2022-09-16T16:52:22.511Z,54.45
2022-09-16T16:54:52.865Z,54.68
2022-09-16T16:57:22.645Z,55.02
2022-09-16T16:59:52.091Z,55.59
2022-09-16T17:02:21.925Z,55.88
2022-09-16T17:04:51.908Z,56.11
2022-09-16T17:07:26.988Z,56.18
2022-09-16T17:09:53.192Z,56.66
2022-09-16T17:12:23.996Z,57.04
2022-09-16T17:14:54.281Z,57.34
2022-09-16T17:17:27.627Z,57.43
2022-09-16T17:19:54.327Z,57.62
2022-09-16T17:22:24.562Z,57.95
2022-09-16T17:24:53.669Z,58.47
2022-09-16T17:27:25.847Z,58.79
2022-09-16T17:29:55.253Z,59.03
2022-09-16T17:32:25.098Z,59.30
2022-09-16T17:34:54.446Z,59.49
2022-09-16T17:37:23.723Z,59.88
2022-09-16T17:39:53.057Z,60.16
2022-09-16T17:42:22.864Z,60.57
2022-09-16T17:44:52.205Z,60.86
2022-09-16T17:47:22.401Z,61.25
2022-09-16T17:49:52.740Z,61.71
2022-09-16T17:52:22.283Z,62.28
2022-09-16T17:54:52.280Z,62.95
2022-09-16T17:57:22.543Z,63.57
2022-09-16T17:59:53.955Z,63.85
2022-09-16T18:02:24.026Z,64.29
2022-09-16T18:04:54.073Z,64.77
2022-09-16T18:07:23.463Z,64.80
2022-09-16T18:09:54.313Z,65.32
2022-09-16T18:12:26.055Z,65.74
2022-09-16T18:14:55.273Z,66.22
2022-09-16T18:17:26.247Z,66.39
2022-09-16T18:19:56.634Z,66.41
2022-09-16T18:22:26.886Z,66.28
2022-09-16T18:24:57.243Z,66.39
2022-09-16T18:27:26.787Z,66.40
2022-09-16T18:29:57.806Z,66.34
2022-09-16T18:32:26.766Z,66.16
2022-09-16T18:34:56.913Z,65.91
2022-09-16T18:37:28.286Z,65.60
2022-09-16T18:39:59.256Z,65.75
2022-09-16T18:42:30.685Z,66.17
2022-09-16T18:44:59.893Z,66.48
2022-09-16T18:47:30.025Z,66.51
2022-09-16T18:49:59.029Z,66.17
2022-09-16T18:52:29.244Z,66.12
2022-09-16T18:54:59.837Z,66.24
2022-09-16T18:57:29.834Z,66.30
2022-09-16T18:59:59.961Z,66.71
2022-09-16T19:02:30.571Z,66.60
2022-09-16T19:05:01.752Z,66.12
2022-09-16T19:07:32.853Z,65.51
2022-09-16T19:10:03.351Z,65.19
2022-09-16T19:12:38.460Z,65.12
2022-09-16T19:15:06.261Z,64.75
2022-09-16T19:17:36.893Z,64.57
2022-09-16T19:20:07.538Z,64.41
2022-09-16T19:22:38.048Z,64.35
2022-09-16T19:25:08.164Z,64.18
2022-09-16T19:27:39.021Z,64.07
2022-09-16T19:30:09.363Z,64.03
2022-09-16T19:32:40.354Z,63.96
2022-09-16T19:35:10.027Z,63.94
2022-09-16T19:37:39.508Z,63.80
2022-09-16T19:40:09.058Z,63.76
2022-09-16T19:42:38.509Z,63.99
2022-09-16T19:45:08.445Z,64.33
2022-09-16T19:47:37.679Z,64.51
2022-09-16T19:50:07.658Z,64.96
2022-09-16T19:52:38.582Z,65.20
2022-09-16T19:55:08.701Z,65.56
2022-09-16T19:57:39.564Z,65.89
2022-09-16T20:00:14.554Z,66.30
2022-09-16T20:02:45.469Z,66.54
2022-09-16T20:05:17.551Z,66.87
2022-09-16T20:07:49.640Z,67.22
2022-09-16T20:10:19.091Z,67.74
2022-09-16T20:12:49.475Z,68.18
2022-09-16T20:15:20.352Z,68.59
2022-09-16T20:17:50.424Z,68.75
2022-09-16T20:20:21.881Z,68.89
2022-09-16T20:22:52.727Z,69.08
2022-09-16T20:25:23.311Z,69.27
2022-09-16T20:27:53.436Z,69.34
2022-09-16T20:30:22.902Z,69.58
2022-09-16T20:32:53.669Z,69.77
2022-09-16T20:35:24.170Z,69.90
2022-09-16T20:37:54.058Z,70.11
2022-09-16T20:40:24.250Z,70.35
2022-09-16T20:42:54.702Z,70.70
2022-09-16T20:45:24.391Z,70.95
2022-09-16T20:47:54.278Z,71.24
2022-09-16T20:50:23.233Z,71.46
2022-09-16T20:52:52.817Z,71.74
2022-09-16T20:55:22.935Z,71.99
2022-09-16T20:57:52.934Z,72.16
2022-09-16T21:00:22.311Z,72.39
2022-09-16T21:02:54.580Z,72.59
2022-09-16T21:05:24.958Z,72.59
2022-09-16T21:07:56.155Z,72.70
2022-09-16T21:10:27.420Z,72.65
2022-09-16T21:12:57.995Z,72.47
2022-09-16T21:15:29.002Z,72.24
2022-09-16T21:17:58.621Z,71.78
2022-09-16T21:20:27.853Z,71.64
2022-09-16T21:22:58.002Z,71.66
2022-09-16T21:25:28.770Z,71.54
2022-09-16T21:27:58.824Z,71.49
2022-09-16T21:30:30.320Z,71.57
2022-09-16T21:33:00.314Z,71.78
2022-09-16T21:35:30.087Z,72.01
2022-09-16T21:38:00.065Z,72.24
2022-09-16T21:40:30.539Z,72.50
2022-09-16T21:43:00.613Z,72.85
2022-09-16T21:45:31.719Z,73.15
2022-09-16T21:48:01.547Z,73.24
2022-09-16T21:50:32.427Z,73.50
2022-09-16T21:53:02.639Z,73.84
2022-09-16T21:55:31.767Z,74.13
2022-09-16T21:58:01.113Z,74.51
2022-09-16T22:00:31.619Z,74.91
2022-09-16T22:03:02.452Z,75.15
2022-09-16T22:05:32.843Z,75.37
2022-09-16T22:08:02.809Z,75.68
2022-09-16T22:10:32.793Z,75.87
2022-09-16T22:13:04.461Z,76.08
2022-09-16T22:15:35.006Z,76.25
2022-09-16T22:18:06.594Z,76.37
2022-09-16T22:20:38.350Z,76.42
2022-09-16T22:23:07.717Z,76.43
2022-09-16T22:25:37.963Z,76.58
2022-09-16T22:28:07.022Z,76.69
2022-09-16T22:30:37.441Z,76.71
2022-09-16T22:33:08.627Z,76.77
2022-09-16T22:35:38.370Z,76.82
2022-09-16T22:38:07.529Z,76.92
2022-09-16T22:40:38.593Z,77.07
2022-09-16T22:43:14.288Z,77.34
2022-09-16T22:45:44.264Z,77.61
2022-09-16T22:48:16.408Z,77.72
2022-09-16T22:50:56.992Z,78.01
2022-09-16T22:53:28.095Z,78.18
2022-09-16T22:56:03.743Z,78.49
2022-09-16T22:58:34.277Z,78.62
2022-09-16T23:01:11.090Z,78.78
2022-09-16T23:03:41.444Z,78.77
2022-09-16T23:06:13.563Z,78.92
2022-09-16T23:08:45.747Z,79.09
2022-09-16T23:11:19.646Z,79.23
2022-09-16T23:13:50.157Z,79.35
2022-09-16T23:16:26.599Z,79.51
2022-09-16T23:18:59.496Z,79.67
2022-09-16T23:21:28.921Z,79.90
2022-09-16T23:24:03.284Z,80.09
2022-09-16T23:26:35.995Z,80.17
2022-09-16T23:29:08.571Z,80.29
2022-09-16T23:31:41.093Z,80.38
2022-09-16T23:34:20.616Z,80.54
2022-09-16T23:36:50.741Z,80.61
2022-09-16T23:39:21.542Z,80.77
2022-09-16T23:41:51.075Z,81.13
2022-09-16T23:44:22.393Z,81.34
2022-09-16T23:46:52.364Z,81.40
2022-09-16T23:49:21.467Z,81.50
2022-09-16T23:51:52.272Z,81.61
2022-09-16T23:54:21.576Z,81.91
2022-09-16T23:56:53.355Z,82.01
2022-09-16T23:59:23.816Z,82.13
